createdAt,value
2019-03-26T00:00:29.422Z,0.9
2019-03-26T00:05:29.803Z,1
2019-03-26T00:10:30.232Z,1
2019-03-26T00:15:29.424Z,1.3
2019-03-26T00:20:29.771Z,1.3
2019-03-26T00:25:30.280Z,1.1
2019-03-26T00:30:29.484Z,1.1
2019-03-26T00:35:29.784Z,1.9
2019-03-26T00:40:30.106Z,1.9
2019-03-26T00:45:30.322Z,2.2
2019-03-26T00:50:29.581Z,2.2
2019-03-26T00:55:29.855Z,1.8
2019-03-26T01:00:30.057Z,1.8
2019-03-26T01:05:29.730Z,2.2
2019-03-26T01:10:29.539Z,2.2
2019-03-26T01:15:29.875Z,2.3
2019-03-26T01:20:30.107Z,2.3
2019-03-26T01:25:30.354Z,2.2
2019-03-26T01:30:29.608Z,2.2
2019-03-26T01:35:29.922Z,2.2
2019-03-26T01:40:29.415Z,2.2
2019-03-26T01:45:29.716Z,1.8
2019-03-26T01:50:29.923Z,1.8
2019-03-26T01:55:30.123Z,2.6
2019-03-26T02:00:30.365Z,2.6
2019-03-26T02:05:30.299Z,2.9
2019-03-26T02:10:29.454Z,2.9
2019-03-26T02:15:29.786Z,1.7
2019-03-26T02:20:29.526Z,1.7
2019-03-26T02:25:29.519Z,1.1
2019-03-26T02:30:30.153Z,1.1
2019-03-26T02:35:29.743Z,0.9
2019-03-26T02:40:30.104Z,0.9
2019-03-26T02:45:30.373Z,1
2019-03-26T02:50:29.719Z,1
2019-03-26T02:55:30.315Z,1.8
2019-03-26T03:00:29.570Z,1.8
2019-03-26T03:05:35.448Z,1.8
2019-03-26T03:10:30.299Z,1.8
2019-03-26T03:15:30.488Z,1.3
2019-03-26T03:20:30.126Z,1.3
2019-03-26T03:25:30.334Z,1.8
2019-03-26T03:30:29.793Z,1.8
2019-03-26T03:35:30.082Z,1.3
2019-03-26T03:40:30.395Z,1.3
2019-03-26T03:45:29.769Z,1.6
2019-03-26T03:50:30.237Z,1.6
2019-03-26T03:55:29.566Z,1.5
2019-03-26T04:00:29.971Z,1.5
2019-03-26T04:05:30.506Z,1.8
2019-03-26T04:10:30.490Z,1.8
2019-03-26T04:15:29.703Z,1.3
2019-03-26T04:20:29.940Z,1.3
2019-03-26T04:25:30.086Z,1.3
2019-03-26T04:30:30.502Z,1.3
2019-03-26T04:35:29.800Z,1.3
2019-03-26T04:40:30.205Z,1.3
2019-03-26T04:45:30.349Z,1.3
2019-03-26T04:50:29.954Z,1.3
2019-03-26T04:55:30.162Z,1
2019-03-26T05:00:30.360Z,1
2019-03-26T05:05:30.156Z,1.3
2019-03-26T05:10:29.745Z,1.3
2019-03-26T05:15:30.043Z,2
2019-03-26T05:20:30.386Z,2
2019-03-26T05:25:29.737Z,1.8
2019-03-26T05:30:33.033Z,1.8
2019-03-26T05:35:30.204Z,1.3
2019-03-26T05:40:30.133Z,1.3
2019-03-26T05:45:30.319Z,1.4
2019-03-26T05:50:40.266Z,1.4
2019-03-26T05:55:30.579Z,1.1
2019-03-26T06:00:29.915Z,1.1
2019-03-26T06:05:30.336Z,1.5
2019-03-26T06:10:30.419Z,1.5
2019-03-26T06:15:29.792Z,1.8
2019-03-26T06:20:30.118Z,1.8
2019-03-26T06:25:30.488Z,2.2
2019-03-26T06:30:30.036Z,2.2
2019-03-26T06:35:30.727Z,2.7
2019-03-26T06:40:30.128Z,2.7
2019-03-26T06:45:30.239Z,2.7
2019-03-26T06:50:30.559Z,2.7
2019-03-26T06:55:29.729Z,2.2
2019-03-26T07:00:30.068Z,2.2
2019-03-26T07:05:30.805Z,2.8
2019-03-26T07:10:30.545Z,2.8
2019-03-26T07:15:33.134Z,2.2
2019-03-26T07:20:30.573Z,2.2
2019-03-26T07:25:30.533Z,2.1
2019-03-26T07:30:30.732Z,2.1
2019-03-26T07:35:30.372Z,2.8
2019-03-26T07:40:30.624Z,2.8
2019-03-26T07:45:29.951Z,2.7
2019-03-26T07:50:30.185Z,2.7
2019-03-26T07:55:29.750Z,2.2
2019-03-26T08:00:30.146Z,2.2
2019-03-26T08:05:30.657Z,2.7
2019-03-26T08:10:30.167Z,2.7
2019-03-26T08:15:30.518Z,2.7
2019-03-26T08:20:30.849Z,2.7
2019-03-26T08:25:33.700Z,3.1
2019-03-26T08:30:30.310Z,3.1
2019-03-26T08:35:30.767Z,3
2019-03-26T08:40:30.123Z,3
2019-03-26T08:45:30.357Z,2.3
2019-03-26T08:50:30.596Z,2.3
2019-03-26T08:55:30.126Z,2
2019-03-26T09:00:32.009Z,2
2019-03-26T09:05:30.615Z,3.1
2019-03-26T09:10:30.348Z,3.1
2019-03-26T09:15:30.137Z,2.7
2019-03-26T09:20:30.485Z,2.7
2019-03-26T09:25:30.788Z,3.8
2019-03-26T09:30:30.189Z,3.8
2019-03-26T09:35:30.051Z,3.3
2019-03-26T09:40:30.277Z,3.3
2019-03-26T09:45:30.668Z,3
2019-03-26T09:50:29.946Z,3
2019-03-26T09:55:30.242Z,2.2
2019-03-26T10:00:30.646Z,2.2
2019-03-26T10:05:31.055Z,2.8
2019-03-26T10:10:30.486Z,2.8
2019-03-26T10:15:30.836Z,3.8
2019-03-26T10:20:30.199Z,3.8
2019-03-26T10:25:30.535Z,2.2
2019-03-26T10:30:30.805Z,2.2
2019-03-26T10:35:30.194Z,2
2019-03-26T10:40:30.707Z,2
2019-03-26T10:45:30.105Z,3.1
2019-03-26T10:50:30.443Z,3.1
2019-03-26T10:55:30.934Z,1.8
2019-03-26T11:00:30.278Z,1.8
2019-03-26T11:05:30.868Z,1.8
2019-03-26T11:10:30.763Z,1.8
2019-03-26T11:15:30.042Z,1.3
2019-03-26T11:20:30.301Z,1.3
2019-03-26T11:25:30.617Z,2.1
2019-03-26T11:30:30.863Z,2.1
2019-03-26T11:35:30.504Z,1.8
2019-03-26T11:40:30.850Z,1.8
2019-03-26T11:45:30.249Z,2.5
2019-03-26T11:50:30.706Z,2.5
2019-03-26T11:55:30.106Z,3.6
2019-03-26T12:00:30.375Z,3.6
2019-03-26T12:05:31.092Z,4
2019-03-26T12:10:30.691Z,4
2019-03-26T12:15:30.996Z,3.6
2019-03-26T12:20:30.494Z,3.6
2019-03-26T12:25:30.923Z,2.7
2019-03-26T12:30:30.287Z,2.7
2019-03-26T12:35:30.984Z,2.7
2019-03-26T12:40:30.589Z,2.7
2019-03-26T12:45:30.207Z,2.7
2019-03-26T12:50:32.200Z,2.7
2019-03-26T12:55:30.287Z,2.5
2019-03-26T13:00:30.751Z,2.5
2019-03-26T13:05:30.410Z,2.7
2019-03-26T13:10:31.035Z,2.7
2019-03-26T13:15:30.437Z,2.2
2019-03-26T13:20:30.702Z,2.2
2019-03-26T13:25:31.011Z,2.2
2019-03-26T13:30:30.245Z,2.2
2019-03-26T13:35:30.569Z,2
2019-03-26T13:40:30.846Z,2
2019-03-26T13:45:32.779Z,2.1
2019-03-26T13:50:30.329Z,2.1
2019-03-26T13:55:30.628Z,3.2
2019-03-26T14:00:30.976Z,3.2
2019-03-26T14:05:30.755Z,3.1
2019-03-26T14:10:40.139Z,3.1
2019-03-26T14:15:30.706Z,2.2
2019-03-26T14:20:31.178Z,2.2
2019-03-26T14:25:30.471Z,3.1
2019-03-26T14:30:30.832Z,3.1
2019-03-26T14:35:30.518Z,2.7
2019-03-26T14:40:31.023Z,2.7
2019-03-26T14:45:30.338Z,3.1
2019-03-26T14:50:30.727Z,3.1
2019-03-26T14:55:31.160Z,3.1
2019-03-26T15:00:30.447Z,3.1
2019-03-26T15:05:30.926Z,3.4
2019-03-26T15:10:30.914Z,3.4
2019-03-26T15:15:30.870Z,3.8
2019-03-26T15:20:30.339Z,3.8
2019-03-26T15:25:30.607Z,2.7
2019-03-26T15:30:30.927Z,2.7
2019-03-26T15:35:31.296Z,3
2019-03-26T15:40:31.002Z,3
2019-03-26T15:45:31.236Z,2.9
2019-03-26T15:50:30.858Z,2.9
2019-03-26T15:55:30.777Z,3
2019-03-26T16:00:31.042Z,3
2019-03-26T16:05:31.335Z,2.7
2019-03-26T16:10:30.959Z,2.7
2019-03-26T16:15:43.492Z,2.2
2019-03-26T16:20:31.169Z,2.2
2019-03-26T16:25:30.552Z,2
2019-03-26T16:30:31.894Z,2
2019-03-26T16:35:31.279Z,2.2
2019-03-26T16:40:30.750Z,2.2
2019-03-26T16:45:31.185Z,2.6
2019-03-26T16:50:30.966Z,2.6
2019-03-26T16:55:31.285Z,2.9
2019-03-26T17:00:30.621Z,2.9
2019-03-26T17:05:31.002Z,2.7
2019-03-26T17:10:30.586Z,2.7
2019-03-26T17:15:31.309Z,2.3
2019-03-26T17:20:30.661Z,2.3
2019-03-26T17:25:31.016Z,2.1
2019-03-26T17:30:31.314Z,2.1
2019-03-26T17:35:30.897Z,1.3
2019-03-26T17:40:31.330Z,1.3
2019-03-26T17:45:30.541Z,1.8
2019-03-26T17:50:30.959Z,1.8
2019-03-26T17:55:31.265Z,1.3
2019-03-26T18:00:30.618Z,1.3
2019-03-26T18:05:31.162Z,1.6
2019-03-26T18:10:30.901Z,1.6
2019-03-26T18:15:30.725Z,1.9
2019-03-26T18:20:32.903Z,1.9
2019-03-26T18:25:31.506Z,2.1
2019-03-26T18:30:31.079Z,2.1
2019-03-26T18:35:30.773Z,1.8
2019-03-26T18:40:30.972Z,1.8
2019-03-26T18:45:31.292Z,1.8
2019-03-26T18:50:30.728Z,1.8
2019-03-26T18:55:31.084Z,2
2019-03-26T19:00:30.516Z,2
2019-03-26T19:05:30.997Z,1.8
2019-03-26T19:10:30.719Z,1.8
2019-03-26T19:15:30.987Z,2.2
2019-03-26T19:20:31.313Z,2.2
2019-03-26T19:25:30.652Z,2.1
2019-03-26T19:30:31.080Z,2.1
2019-03-26T19:35:31.546Z,1.8
2019-03-26T19:40:31.092Z,1.8
2019-03-26T19:45:31.395Z,2.2
2019-03-26T19:50:30.757Z,2.2
2019-03-26T19:55:31.115Z,2
2019-03-26T20:00:31.398Z,2
2019-03-26T20:05:30.839Z,2.1
2019-03-26T20:10:31.462Z,2.1
2019-03-26T20:15:31.196Z,2
2019-03-26T20:20:31.472Z,2
2019-03-26T20:25:30.845Z,1.8
2019-03-26T20:30:31.111Z,1.8
2019-03-26T20:35:30.989Z,1.8
2019-03-26T20:40:31.409Z,1.8
2019-03-26T20:45:30.645Z,1.8
2019-03-26T20:50:31.128Z,1.8
2019-03-26T20:55:31.298Z,1.8
2019-03-26T21:00:31.699Z,1.8
2019-03-26T21:05:31.048Z,1.3
2019-03-26T21:10:30.764Z,1.3
2019-03-26T21:15:30.817Z,1.3
2019-03-26T21:20:31.224Z,1.3
2019-03-26T21:25:31.650Z,1.3
2019-03-26T21:30:30.990Z,1.3
2019-03-26T21:35:30.780Z,1.8
2019-03-26T21:40:31.195Z,1.8
2019-03-26T21:45:31.379Z,1.3
2019-03-26T21:50:30.763Z,1.3
2019-03-26T21:55:31.050Z,1.3
2019-03-26T22:00:31.397Z,1.3
2019-03-26T22:05:31.366Z,1.3
2019-03-26T22:10:31.741Z,1.3
2019-03-26T22:15:31.894Z,1.3
2019-03-26T22:20:31.301Z,1.3
2019-03-26T22:25:31.660Z,0.9
2019-03-26T22:30:30.888Z,0.9
2019-03-26T22:35:31.316Z,1.3
2019-03-26T22:40:31.692Z,1.3
2019-03-26T22:45:30.973Z,1.3
2019-03-26T22:50:31.618Z,1.3
2019-03-26T22:55:31.823Z,1.3
2019-03-26T23:00:31.704Z,1.3
2019-03-26T23:05:31.411Z,0.9
2019-03-26T23:10:31.453Z,0.9
2019-03-26T23:15:31.365Z,1.8
2019-03-26T23:20:30.946Z,1.8
2019-03-26T23:25:31.342Z,1.3
2019-03-26T23:30:31.598Z,1.3
2019-03-26T23:35:31.805Z,1.8
2019-03-26T23:40:31.196Z,1.8
2019-03-26T23:45:31.468Z,1.8
2019-03-26T23:50:30.862Z,1.8
2019-03-26T23:55:31.634Z,1.4
